createdAt,value
2023-05-15T00:01:32.799Z,99816.25
2023-05-15T00:05:34.733Z,99805.23
2023-05-15T00:09:36.687Z,99804.23
2023-05-15T00:13:38.614Z,99800.35
2023-05-15T00:17:40.527Z,99791.03
2023-05-15T00:21:42.606Z,99791.25
2023-05-15T00:25:44.460Z,99784.13
2023-05-15T00:29:46.259Z,99782.48
2023-05-15T00:33:48.195Z,99778.73
2023-05-15T00:37:50.120Z,99772.89
2023-05-15T00:41:53.426Z,99767.94
2023-05-15T00:45:55.615Z,99761.13
2023-05-15T00:49:57.613Z,99750.10
2023-05-15T00:53:59.592Z,99744.00
2023-05-15T00:58:03.501Z,99730.76
2023-05-15T01:02:05.621Z,99724.40
2023-05-15T01:06:07.516Z,99714.11
2023-05-15T01:10:10.701Z,99704.23
2023-05-15T01:14:12.628Z,99698.29
2023-05-15T01:18:15.930Z,99689.48
2023-05-15T01:22:34.558Z,99687.20
2023-05-15T01:27:00.093Z,99678.88
2023-05-15T01:31:12.244Z,99670.66
2023-05-15T01:35:17.916Z,99666.28
2023-05-15T01:39:25.880Z,99664.71
2023-05-15T01:43:30.781Z,99668.36
2023-05-15T01:47:46.024Z,99663.26
2023-05-15T01:51:53.806Z,99676.35
2023-05-15T01:55:56.954Z,99687.73
2023-05-15T01:59:59.397Z,99682.88
2023-05-15T02:04:02.765Z,99660.01
2023-05-15T02:08:05.018Z,99636.52
2023-05-15T02:12:07.885Z,99633.09
2023-05-15T02:16:09.881Z,99630.09
2023-05-15T02:20:11.826Z,99625.92
2023-05-15T02:24:13.700Z,99615.27
2023-05-15T02:28:36.583Z,99605.77
2023-05-15T02:32:56.145Z,99595.56
2023-05-15T02:37:01.452Z,99581.09
2023-05-15T02:41:05.711Z,99571.16
2023-05-15T02:45:09.075Z,99567.05
2023-05-15T02:49:11.761Z,99562.85
2023-05-15T02:53:15.049Z,99557.36
2023-05-15T02:57:16.899Z,99550.14
2023-05-15T03:01:18.688Z,99537.71
2023-05-15T03:05:20.770Z,99530.05
2023-05-15T03:09:22.637Z,99523.90
2023-05-15T03:13:24.410Z,99518.02
2023-05-15T03:17:26.262Z,99512.98
2023-05-15T03:21:28.041Z,99510.82
2023-05-15T03:25:29.988Z,99506.81
2023-05-15T03:29:31.903Z,99504.12
2023-05-15T03:33:34.475Z,99502.94
2023-05-15T03:37:36.404Z,99492.96
2023-05-15T03:41:38.407Z,99486.01
2023-05-15T03:45:40.112Z,99481.13
2023-05-15T03:49:42.336Z,99476.26
2023-05-15T03:53:44.122Z,99476.72
2023-05-15T03:57:46.108Z,99475.65
2023-05-15T04:02:02.978Z,99474.31
2023-05-15T04:06:06.952Z,99477.36
2023-05-15T04:10:08.898Z,99473.85
2023-05-15T04:14:10.769Z,99469.02
2023-05-15T04:18:12.520Z,99458.29
2023-05-15T04:22:14.356Z,99460.38
2023-05-15T04:26:16.150Z,99460.27
2023-05-15T04:30:17.942Z,99458.83
2023-05-15T04:34:20.019Z,99456.47
2023-05-15T04:38:21.800Z,99459.55
2023-05-15T04:42:23.566Z,99454.09
2023-05-15T04:46:25.964Z,99444.62
2023-05-15T04:50:27.888Z,99441.61
2023-05-15T04:54:29.676Z,99440.05
2023-05-15T04:58:31.585Z,99435.42
2023-05-15T05:02:33.519Z,99433.70
2023-05-15T05:06:35.793Z,99432.30
2023-05-15T05:10:37.516Z,99425.42
2023-05-15T05:14:41.480Z,99421.33
2023-05-15T05:18:43.275Z,99416.16
2023-05-15T05:22:44.912Z,99418.60
2023-05-15T05:26:48.013Z,99418.77
2023-05-15T05:30:49.853Z,99415.30
2023-05-15T05:34:51.423Z,99410.35
2023-05-15T05:38:53.008Z,99407.89
2023-05-15T05:42:54.643Z,99408.61
2023-05-15T05:46:56.429Z,99406.54
2023-05-15T05:50:58.285Z,99403.17
2023-05-15T05:54:59.914Z,99394.31
2023-05-15T05:59:01.735Z,99390.04
2023-05-15T06:03:03.519Z,99380.48
2023-05-15T06:07:05.105Z,99369.88
2023-05-15T06:11:06.647Z,99360.73
2023-05-15T06:15:08.498Z,99354.58
2023-05-15T06:19:10.366Z,99352.69
2023-05-15T06:23:12.318Z,99351.44
2023-05-15T06:27:14.301Z,99345.19
2023-05-15T06:31:17.133Z,99346.66
2023-05-15T06:35:19.048Z,99341.70
2023-05-15T06:39:20.742Z,99341.05
2023-05-15T06:43:22.397Z,99332.98
2023-05-15T06:47:24.208Z,99335.43
2023-05-15T06:51:26.407Z,99334.52
2023-05-15T06:55:28.349Z,99330.58
2023-05-15T06:59:33.854Z,99329.75
2023-05-15T07:03:35.653Z,99327.60
2023-05-15T07:07:37.633Z,99327.63
2023-05-15T07:11:41.032Z,99324.11
2023-05-15T07:15:42.758Z,99321.14
2023-05-15T07:19:44.634Z,99318.47
2023-05-15T07:23:46.531Z,99315.50
2023-05-15T07:27:48.393Z,99315.29
2023-05-15T07:31:50.404Z,99310.98
2023-05-15T07:35:52.443Z,99307.20
2023-05-15T07:39:55.699Z,99307.81
2023-05-15T07:43:57.479Z,99300.48
2023-05-15T07:47:59.478Z,99300.04
2023-05-15T07:52:01.839Z,99294.29
2023-05-15T07:56:03.835Z,99294.16
2023-05-15T08:00:11.160Z,99293.67
2023-05-15T08:04:13.115Z,99293.63
2023-05-15T08:08:15.152Z,99287.23
2023-05-15T08:12:23.559Z,99284.88
2023-05-15T08:16:26.122Z,99277.16
2023-05-15T08:21:24.480Z,99279.84
2023-05-15T08:36:33.102Z,99262.97
2023-05-15T08:40:39.437Z,99262.45
2023-05-15T08:44:41.910Z,99261.23
2023-05-15T08:48:43.690Z,99260.70
2023-05-15T08:52:48.931Z,99262.90
2023-05-15T08:56:50.499Z,99263.08
2023-05-15T09:01:17.447Z,99259.13
2023-05-15T09:05:18.956Z,99259.08
2023-05-15T09:10:10.594Z,99262.18
2023-05-15T09:14:14.186Z,99266.06
2023-05-15T09:18:16.437Z,99266.77
2023-05-15T09:22:23.544Z,99262.77
2023-05-15T09:26:25.268Z,99260.02
2023-05-15T09:30:27.318Z,99257.36
2023-05-15T09:34:33.737Z,99257.50
2023-05-15T09:38:41.129Z,99261.27
2023-05-15T09:42:51.361Z,99262.79
2023-05-15T09:46:52.984Z,99262.20
2023-05-15T09:50:55.766Z,99260.17
2023-05-15T09:54:57.477Z,99262.98
2023-05-15T09:58:59.114Z,99263.30
2023-05-15T10:03:04.793Z,99263.83
2023-05-15T10:07:08.788Z,99266.27
2023-05-15T10:11:10.541Z,99267.60
2023-05-15T10:15:13.819Z,99261.95
2023-05-15T10:19:15.286Z,99261.02
2023-05-15T10:23:19.871Z,99254.79
2023-05-15T10:27:22.703Z,99247.66
2023-05-15T10:31:24.874Z,99248.92
2023-05-15T10:35:27.389Z,99246.90
2023-05-15T10:39:29.466Z,99244.59
2023-05-15T10:44:05.853Z,99244.23
2023-05-15T11:10:44.477Z,99237.29
2023-05-15T11:15:02.625Z,99233.56
2023-05-15T11:19:24.379Z,99231.02
2023-05-15T11:23:25.805Z,99234.05
2023-05-15T11:27:30.170Z,99226.36
2023-05-15T11:31:31.710Z,99220.33
2023-05-15T11:35:42.451Z,99211.48
2023-05-15T11:39:44.015Z,99210.42
2023-05-15T11:43:46.057Z,99206.17
2023-05-15T11:47:47.584Z,99207.96
2023-05-15T11:51:50.768Z,99208.27
2023-05-15T11:55:53.798Z,99214.05
2023-05-15T11:59:55.363Z,99208.05
2023-05-15T12:03:57.169Z,99216.58
2023-05-15T12:08:00.961Z,99218.01
2023-05-15T12:12:13.079Z,99220.83
2023-05-15T12:16:14.559Z,99219.62
2023-05-15T12:20:18.008Z,99212.15
2023-05-15T12:24:20.716Z,99207.84
2023-05-15T12:28:22.347Z,99205.57
2023-05-15T12:32:23.957Z,99210.75
2023-05-15T12:36:29.019Z,99207.61
2023-05-15T12:41:25.443Z,99204.98
2023-05-15T12:45:26.886Z,99210.11
2023-05-15T12:49:28.260Z,99214.60
2023-05-15T12:53:31.894Z,99221.36
2023-05-15T12:57:35.473Z,99226.89
2023-05-15T13:01:37.125Z,99232.52
2023-05-15T13:06:47.835Z,99232.58
2023-05-15T13:10:56.675Z,99228.34
2023-05-15T13:14:58.345Z,99229.02
2023-05-15T13:19:02.489Z,99226.97
2023-05-15T13:23:04.280Z,99227.56
2023-05-15T13:27:05.690Z,99231.95
2023-05-15T13:41:17.709Z,99223.30
2023-05-15T13:45:19.220Z,99229.46
2023-05-15T13:49:20.797Z,99232.83
2023-05-15T13:53:52.185Z,99230.39
2023-05-15T13:57:54.355Z,99228.83
2023-05-15T14:01:55.708Z,99236.14
2023-05-15T14:05:57.246Z,99233.44
2023-05-15T14:09:59.070Z,99239.52
2023-05-15T14:14:00.543Z,99245.91
2023-05-15T14:18:02.042Z,99245.11
2023-05-15T14:22:03.813Z,99244.67
2023-05-15T14:26:32.471Z,99247.23
2023-05-15T14:30:59.546Z,99247.55
2023-05-15T14:36:08.979Z,99254.27
2023-05-15T14:40:22.260Z,99258.14
2023-05-15T15:02:46.215Z,99266.36
2023-05-15T15:06:52.106Z,99257.58
2023-05-15T15:10:57.842Z,99253.52
2023-05-15T15:23:50.482Z,99256.19
2023-05-15T15:27:52.281Z,99257.26
2023-05-15T15:31:53.792Z,99254.34
2023-05-15T15:35:55.582Z,99247.54
2023-05-15T15:39:57.942Z,99243.20
2023-05-15T15:44:00.761Z,99245.53
2023-05-15T15:48:02.178Z,99241.55
2023-05-15T15:52:09.924Z,99236.45
2023-05-15T15:56:11.398Z,99234.86
2023-05-15T16:00:15.345Z,99228.84
2023-05-15T16:04:16.896Z,99224.39
2023-05-15T16:08:18.394Z,99225.89
2023-05-15T16:12:19.782Z,99221.80
2023-05-15T16:16:22.001Z,99224.29
2023-05-15T16:20:23.580Z,99221.36
2023-05-15T16:24:25.712Z,99224.94
2023-05-15T16:28:27.301Z,99228.92
2023-05-15T16:32:28.738Z,99232.59
2023-05-15T16:36:30.957Z,99233.95
2023-05-15T16:40:32.363Z,99232.54
2023-05-15T16:44:34.574Z,99234.09
2023-05-15T16:48:36.210Z,99242.14
2023-05-15T16:52:39.059Z,99245.29
2023-05-15T16:56:40.719Z,99251.14
2023-05-15T17:00:43.382Z,99250.20
2023-05-15T17:04:44.723Z,99254.54
2023-05-15T17:08:46.420Z,99262.37
2023-05-15T17:12:47.810Z,99266.05
2023-05-15T17:16:49.242Z,99273.53
2023-05-15T17:20:50.904Z,99271.77
2023-05-15T17:24:52.441Z,99275.77
2023-05-15T17:33:21.895Z,99292.56
2023-05-15T17:37:24.400Z,99301.27
2023-05-15T17:41:27.421Z,99303.81
2023-05-15T17:45:39.176Z,99314.14
2023-05-15T17:49:40.621Z,99314.20
2023-05-15T17:53:42.011Z,99315.60
2023-05-15T17:57:43.435Z,99315.33
2023-05-15T18:01:52.369Z,99319.52
2023-05-15T18:05:53.864Z,99321.09
2023-05-15T18:09:56.873Z,99330.34
2023-05-15T18:13:58.258Z,99342.52
2023-05-15T18:17:59.875Z,99352.67
2023-05-15T18:22:02.653Z,99357.12
2023-05-15T18:26:04.127Z,99364.79
2023-05-15T18:30:11.846Z,99370.51
2023-05-15T18:34:13.258Z,99376.75
2023-05-15T18:38:14.690Z,99380.55
2023-05-15T18:42:45.427Z,99383.24
2023-05-15T18:46:46.891Z,99380.36
2023-05-15T18:50:48.499Z,99387.80
2023-05-15T18:54:51.516Z,99387.74
2023-05-15T18:58:53.854Z,99391.98
2023-05-15T19:02:55.526Z,99400.16
2023-05-15T19:06:57.279Z,99406.50
2023-05-15T19:11:01.188Z,99407.15
2023-05-15T19:15:03.285Z,99412.20
2023-05-15T19:19:04.728Z,99415.54
2023-05-15T19:23:09.082Z,99419.14
2023-05-15T19:27:10.897Z,99414.90
2023-05-15T19:31:24.096Z,99411.73
2023-05-15T19:35:29.138Z,99415.07
2023-05-15T19:39:32.926Z,99415.20
2023-05-15T19:43:35.766Z,99419.95
2023-05-15T19:47:56.925Z,99417.31
2023-05-15T19:51:58.322Z,99418.02
2023-05-15T19:55:59.713Z,99416.60
2023-05-15T20:00:01.446Z,99420.47
2023-05-15T20:04:02.968Z,99428.59
2023-05-15T20:08:05.056Z,99431.74
2023-05-15T20:12:06.720Z,99436.32
2023-05-15T20:16:10.489Z,99436.89
2023-05-15T20:20:21.049Z,99436.10
2023-05-15T20:24:25.171Z,99438.80
2023-05-15T20:28:27.756Z,99442.48
2023-05-15T20:32:31.407Z,99442.08
2023-05-15T20:36:33.147Z,99444.35
2023-05-15T20:40:34.679Z,99452.41
2023-05-15T20:44:38.452Z,99454.36
2023-05-15T20:48:39.912Z,99453.39
2023-05-15T20:52:41.411Z,99458.48
2023-05-15T20:56:42.801Z,99458.27
2023-05-15T21:00:53.512Z,99458.71
2023-05-15T21:04:55.089Z,99454.65
2023-05-15T21:08:56.454Z,99452.37
2023-05-15T21:12:59.462Z,99446.94
2023-05-15T21:17:01.008Z,99449.65
2023-05-15T21:21:06.370Z,99452.38
2023-05-15T21:25:21.451Z,99455.79
2023-05-15T21:29:22.933Z,99456.98
2023-05-15T21:33:28.426Z,99462.83
2023-05-15T21:37:30.037Z,99457.96
2023-05-15T21:41:35.557Z,99460.54
2023-05-15T21:45:36.953Z,99464.79
2023-05-15T21:49:38.356Z,99463.06
2023-05-15T21:53:44.711Z,99468.27
2023-05-15T21:57:46.104Z,99467.12
2023-05-15T22:01:47.856Z,99468.98
2023-05-15T22:05:52.744Z,99470.91
2023-05-15T22:09:54.191Z,99471.05
2023-05-15T22:13:55.516Z,99472.02
2023-05-15T22:17:58.587Z,99474.84
2023-05-15T22:22:02.763Z,99473.65
2023-05-15T22:26:04.174Z,99471.66
2023-05-15T22:30:06.202Z,99474.36
2023-05-15T22:34:07.627Z,99478.05
2023-05-15T22:38:09.071Z,99480.73
2023-05-15T22:42:10.509Z,99484.23
2023-05-15T22:46:21.345Z,99484.51
2023-05-15T22:50:22.747Z,99486.10
2023-05-15T22:54:27.263Z,99488.98
2023-05-15T22:58:28.671Z,99495.70
2023-05-15T23:02:43.496Z,99495.50
2023-05-15T23:06:46.272Z,99501.17
2023-05-15T23:10:47.593Z,99501.98
2023-05-15T23:14:48.986Z,99497.35
2023-05-15T23:18:55.747Z,99503.92
2023-05-15T23:22:57.100Z,99509.50
2023-05-15T23:26:58.501Z,99513.86
2023-05-15T23:31:30.127Z,99518.31
2023-05-15T23:35:32.529Z,99519.88
2023-05-15T23:39:59.401Z,99516.08
2023-05-15T23:44:00.734Z,99516.18
2023-05-15T23:48:02.114Z,99516.88
2023-05-15T23:52:03.749Z,99520.75
2023-05-15T23:56:05.678Z,99529.92
